Terminal Aerodrome Forecast
Issued by NWS Corpus Christi, TX

Home | Current Version | Previous Version | Text Only | Print | Product List | Glossary On
Versions: 1 2 3 4 5 6 7 8 9 10 11 12 13 14
000
FTUS44 KCRP 031124
TAFVCT
TAF
KVCT 031124Z 0312/0412 14004KT P6SM FEW018 SCT250
     FM031400 16011KT P6SM VCSH SCT025 BKN150
      TEMPO 0314/0317 BKN025
     FM031800 15013KT P6SM VCSH BKN035
     FM032100 14014G21KT P6SM BKN050
     FM040200 14010KT P6SM BKN020
     FM040900 13005KT P6SM SCT020 BKN040=

USA.gov is the U.S. government's official web portal to all federal, state and local government web resources and services.